Time;durP1;ratioP1;P1;durP2;ratioP2;P2;SDS_P1;SDS_P2;PMS_P1;PMS_P2;Temp;Humidity;BMP_temperature;BMP_pressure;BME280_temperature;BME280_humidity;BME280_pressure;Samples;Min_cycle;Max_cycle;Signal;HPM_P1;HPM_P2
2021/12/25 00:00:10;;;;;;;119.15;50.78;;;;;;;-0.80;75.51;99476.00;5090806;28;20035;-37
2021/12/25 00:02:36;;;;;;;123.82;51.72;;;;;;;-0.75;75.49;99488.66;5090774;28;20043;-37
2021/12/25 00:05:02;;;;;;;116.15;50.20;;;;;;;-0.62;75.67;99492.66;5090907;28;20020;-37
2021/12/25 00:07:27;;;;;;;117.05;49.45;;;;;;;-0.42;75.80;99493.47;5090545;28;20052;-37
2021/12/25 00:09:53;;;;;;;116.78;49.08;;;;;;;-0.46;74.86;99491.25;5090567;28;20100;-37
2021/12/25 00:12:18;;;;;;;118.45;49.88;;;;;;;-0.42;74.99;99495.25;5090614;28;20063;-38
2021/12/25 00:14:44;;;;;;;111.97;46.53;;;;;;;-0.55;75.18;99495.56;5090631;28;20028;-37
2021/12/25 00:17:09;;;;;;;119.97;48.72;;;;;;;-0.47;74.45;99492.25;5090629;28;20024;-37
2021/12/25 00:19:35;;;;;;;120.97;49.92;;;;;;;-0.55;74.63;99471.19;5090357;28;20505;-38
2021/12/25 00:22:00;;;;;;;122.05;51.90;;;;;;;-0.50;74.23;99479.44;5089080;28;20024;-38
2021/12/25 00:24:26;;;;;;;121.63;52.55;;;;;;;-0.36;73.55;99479.03;5090463;28;20055;-38
2021/12/25 00:27:02;;;;;;;133.18;55.33;;;;;;;-0.57;74.42;99487.03;5090392;28;20032;-38
2021/12/25 00:34:33;;;;;;;147.57;59.45;;;;;;;-0.64;74.53;99470.22;5089776;28;20124;-38
2021/12/25 00:36:59;;;;;;;138.45;57.20;;;;;;;-0.83;74.50;99469.25;5089585;28;20482;-38
2021/12/25 00:39:28;;;;;;;138.63;55.70;;;;;;;-0.86;74.77;99472.13;5089844;28;20031;-38
2021/12/25 00:41:53;;;;;;;141.93;58.75;;;;;;;-0.95;75.17;99467.75;5089716;28;20028;-38
2021/12/25 00:44:19;;;;;;;133.77;56.00;;;;;;;-0.74;74.11;99467.63;5089655;28;20043;-38
2021/12/25 00:46:44;;;;;;;137.80;58.20;;;;;;;-0.84;74.82;99465.00;5089703;28;20036;-38
2021/12/25 00:49:10;;;;;;;127.25;54.03;;;;;;;-1.11;75.76;99438.72;5089553;28;20464;-38
2021/12/25 00:51:35;;;;;;;138.77;57.20;;;;;;;-0.79;76.09;99470.63;5089473;28;20097;-37
2021/12/25 00:54:01;;;;;;;134.10;56.97;;;;;;;-0.86;75.63;99459.06;5087985;28;20024;-38
2021/12/25 00:56:26;;;;;;;135.77;57.50;;;;;;;-0.85;75.77;99471.19;5089104;28;20016;-38
2021/12/25 00:58:51;;;;;;;137.38;58.45;;;;;;;-0.86;75.45;99430.34;5088934;28;20032;-38
2021/12/25 01:01:17;;;;;;;148.80;57.08;;;;;;;-0.64;76.12;99465.00;5089212;28;20015;-37
2021/12/25 01:03:42;;;;;;;143.27;60.38;;;;;;;-0.77;75.31;99470.50;5089184;28;20425;-37
2021/12/25 01:06:08;;;;;;;137.63;58.83;;;;;;;-0.96;75.53;99463.47;5089103;28;20056;-37
2021/12/25 01:08:33;;;;;;;118.68;53.53;;;;;;;-0.94;75.29;99464.16;5089063;28;20024;-38
2021/12/25 01:10:59;;;;;;;127.55;53.55;;;;;;;-1.13;76.18;99461.53;5088963;28;20028;-37
2021/12/25 01:13:29;;;;;;;136.90;56.72;;;;;;;-1.09;76.45;99470.75;5089101;28;20065;-39
2021/12/25 01:47:59;;;;;;;114.43;49.13;;;;;;;-1.45;77.90;99475.59;5089309;28;20494;-38
2021/12/25 01:50:26;;;;;;;113.45;46.78;;;;;;;-1.61;79.31;99489.16;5089024;28;20028;-38
2021/12/25 01:52:52;;;;;;;119.72;49.28;;;;;;;-1.42;78.57;99484.00;5089097;28;20055;-38
2021/12/25 01:55:24;;;;;;;117.03;48.85;;;;;;;-1.35;77.00;99478.25;5088979;28;20055;-38
2021/12/25 01:57:50;;;;;;;113.97;47.78;;;;;;;-1.27;76.82;99465.38;5089272;28;20027;-38
2021/12/25 02:00:23;;;;;;;116.90;48.92;;;;;;;-1.19;76.49;99461.09;5089470;28;20028;-38
2021/12/25 02:02:49;;;;;;;115.25;49.58;;;;;;;-1.11;77.41;99455.22;5088570;28;20024;-38
2021/12/25 02:05:15;;;;;;;118.00;49.35;;;;;;;-1.01;76.23;99458.69;5090556;28;20100;-38
2021/12/25 02:07:40;;;;;;;111.97;46.72;;;;;;;-0.96;77.18;99454.81;5092418;28;20125;-38
2021/12/25 02:10:07;;;;;;;114.05;47.60;;;;;;;-0.94;76.68;99453.72;5092494;28;20031;-38
2021/12/25 02:12:33;;;;;;;108.40;46.42;;;;;;;-1.07;76.92;99453.97;5075105;28;20096;-38
2021/12/25 02:15:05;;;;;;;114.90;48.33;;;;;;;-1.03;76.39;99455.38;5093299;28;20020;-38
2021/12/25 02:17:50;;;;;;;117.25;51.38;;;;;;;-1.02;75.39;99443.13;5093089;28;20031;-38
2021/12/25 02:20:20;;;;;;;122.43;52.50;;;;;;;-1.22;77.08;99450.94;5093035;28;20067;-37
2021/12/25 02:22:47;;;;;;;122.18;51.97;;;;;;;-0.98;76.67;99450.53;5092710;28;20028;-37
2021/12/25 02:25:12;;;;;;;119.53;50.70;;;;;;;-1.01;76.84;99450.84;5092905;28;20035;-38
2021/12/25 02:27:38;;;;;;;117.63;50.03;;;;;;;-0.94;76.14;99445.06;5092964;28;20047;-37
2021/12/25 02:30:05;;;;;;;119.95;49.15;;;;;;;-1.07;76.82;99440.91;5092756;28;20035;-38
2021/12/25 02:32:30;;;;;;;119.15;49.40;;;;;;;-0.98;77.35;99450.53;5092712;28;20368;-37
2021/12/25 02:34:56;;;;;;;115.68;49.20;;;;;;;-0.83;75.46;99455.38;5092522;28;20142;-38
2021/12/25 02:37:21;;;;;;;116.20;49.53;;;;;;;-0.63;75.26;99462.25;5092503;28;20047;-38
2021/12/25 02:39:47;;;;;;;104.38;45.72;;;;;;;-0.83;74.96;99458.81;5092697;28;20129;-38
2021/12/25 02:42:12;;;;;;;114.15;48.47;;;;;;;-1.10;77.38;99453.44;5091154;28;20036;-38
2021/12/25 02:44:38;;;;;;;107.53;47.38;;;;;;;-1.04;75.55;99445.06;5092577;28;20036;-38
2021/12/25 02:47:09;;;;;;;102.35;43.80;;;;;;;-0.53;75.30;99450.94;5091409;28;20028;-38
2021/12/25 02:49:36;;;;;;;106.75;45.75;;;;;;;-0.31;72.83;99445.41;5093166;28;20028;-38
2021/12/25 02:52:02;;;;;;;100.80;43.00;;;;;;;-0.29;72.70;99445.28;5093006;28;20039;-38
2021/12/25 02:54:27;;;;;;;96.38;42.92;;;;;;;-0.36;72.67;99445.03;5092595;28;20028;-37
2021/12/25 02:56:52;;;;;;;106.38;44.80;;;;;;;-0.62;73.91;99445.59;5092824;28;20460;-37
2021/12/25 02:59:18;;;;;;;94.88;40.70;;;;;;;-0.89;74.45;99443.69;5092530;28;20028;-37
2021/12/25 03:01:43;;;;;;;105.35;43.90;;;;;;;-0.85;74.55;99439.84;5092402;28;20131;-37
2021/12/25 03:04:09;;;;;;;98.22;44.65;;;;;;;-0.28;72.29;99444.31;5092063;28;20047;-38
2021/12/25 03:06:36;;;;;;;100.18;42.95;;;;;;;-0.80;74.19;99455.94;5091699;28;20174;-37
2021/12/25 03:09:03;;;;;;;97.80;42.00;;;;;;;-0.63;72.93;99456.19;5091886;28;20036;-37
2021/12/25 03:11:29;;;;;;;87.10;39.17;;;;;;;-0.81;74.20;99464.72;5091819;28;20115;-38
2021/12/25 03:14:00;;;;;;;86.35;39.13;;;;;;;-0.49;72.51;99468.84;5091909;28;20410;-38
2021/12/25 03:16:26;;;;;;;82.18;35.30;;;;;;;-0.64;72.99;99478.06;5091012;28;20028;-38
2021/12/25 03:18:54;;;;;;;79.80;35.33;;;;;;;-0.74;73.14;99482.47;5092488;28;20099;-37
2021/12/25 03:21:19;;;;;;;76.32;33.72;;;;;;;-0.40;71.91;99482.84;5091892;28;20410;-37
2021/12/25 03:23:49;;;;;;;72.10;34.03;;;;;;;-0.63;71.25;99488.41;5092107;28;20032;-37
2021/12/25 03:26:14;;;;;;;74.68;34.78;;;;;;;-0.42;70.48;99493.47;5091814;28;20024;-37
2021/12/25 03:28:42;;;;;;;75.70;33.78;;;;;;;-0.57;70.37;99491.41;5091910;28;20134;-38
2021/12/25 03:31:19;;;;;;;79.18;34.20;;;;;;;-0.42;70.97;99480.41;5091536;28;20031;-37
2021/12/25 03:33:46;;;;;;;71.45;32.13;;;;;;;-0.59;70.81;99481.13;5091843;28;20024;-37
2021/12/25 03:36:12;;;;;;;76.78;34.03;;;;;;;-0.78;71.37;99492.38;5091417;28;20090;-38
2021/12/25 03:38:37;;;;;;;62.97;29.50;;;;;;;-1.44;73.32;99490.31;5091317;28;20398;-38
2021/12/25 03:41:06;;;;;;;71.95;31.40;;;;;;;-1.00;72.74;99485.63;5091305;28;20020;-38
2021/12/25 03:43:32;;;;;;;68.53;29.13;;;;;;;-1.10;71.91;99492.63;5091340;28;20043;-37
2021/12/25 03:45:57;;;;;;;71.28;31.85;;;;;;;-1.53;74.70;99497.16;5091142;28;20051;-38
2021/12/25 03:59:04;;;;;;;70.70;32.17;;;;;;;-0.52;70.07;99489.22;5091543;28;20089;-38
2021/12/25 04:04:13;;;;;;;79.78;36.60;;;;;;;-0.23;68.34;99495.25;5090787;28;20485;-37
2021/12/25 04:06:45;;;;;;;81.43;35.92;;;;;;;-0.22;68.58;99489.03;5090647;28;20131;-37
2021/12/25 04:09:22;;;;;;;68.22;30.85;;;;;;;-0.52;69.31;99486.59;5090621;28;20024;-37
2021/12/25 04:11:47;;;;;;;69.70;32.05;;;;;;;-0.36;69.01;99488.63;5090084;28;20517;-37
2021/12/25 04:14:13;;;;;;;67.85;31.90;;;;;;;-0.70;70.44;99492.53;5090631;28;20037;-37
2021/12/25 04:16:38;;;;;;;71.45;32.95;;;;;;;-0.30;69.68;99488.09;5090407;28;20020;-37
2021/12/25 04:19:04;;;;;;;74.32;33.47;;;;;;;-0.41;70.34;99482.03;5090592;28;20035;-37
2021/12/25 04:21:29;;;;;;;71.25;33.70;;;;;;;-0.61;71.79;99489.09;5090683;28;20396;-37
2021/12/25 04:23:55;;;;;;;81.95;36.75;;;;;;;-0.22;70.26;99506.53;5091019;28;20028;-38
2021/12/25 04:26:23;;;;;;;80.93;37.47;;;;;;;0.08;68.70;99496.84;5090498;28;20043;-37
2021/12/25 04:29:41;;;;;;;89.72;37.22;;;;;;;0.14;67.95;99502.31;5090549;28;20070;-38
2021/12/25 04:32:01;;;;;;;80.97;36.58;;;;;;;-0.53;69.84;99496.25;5083225;28;20138;-37
2021/12/25 04:42:53;;;;;;;82.63;37.05;;;;;;;-0.16;69.12;99508.59;5090558;28;20439;-37
2021/12/25 05:01:43;;;;;;;84.70;37.45;;;;;;;-0.52;69.42;99508.34;5088874;28;20460;-37
2021/12/25 05:04:16;;;;;;;87.53;38.25;;;;;;;-0.21;68.78;99527.31;5089459;28;20092;-37
2021/12/25 05:06:41;;;;;;;97.35;41.60;;;;;;;-0.10;67.09;99518.47;5090358;28;20088;-37
2021/12/25 05:09:07;;;;;;;96.53;42.63;;;;;;;0.00;66.61;99518.47;5090169;28;20055;-37
2021/12/25 05:11:32;;;;;;;99.88;40.95;;;;;;;-0.44;68.15;99524.19;5089943;28;20035;-37
2021/12/25 05:13:58;;;;;;;91.43;42.22;;;;;;;-0.34;67.50;99518.09;5090186;28;20089;-37
2021/12/25 05:16:23;;;;;;;107.32;43.75;;;;;;;-0.62;68.71;99525.81;5090295;28;20479;-38
2021/12/25 05:18:50;;;;;;;106.78;43.55;;;;;;;-0.78;70.99;99531.59;5090211;28;20020;-37
2021/12/25 05:21:18;;;;;;;115.90;45.53;;;;;;;-0.79;70.35;99535.97;5090169;28;20441;-38
2021/12/25 05:23:43;;;;;;;152.82;64.55;;;;;;;-0.69;69.43;99530.75;5090315;28;20399;-38
2021/12/25 05:26:09;;;;;;;113.80;47.33;;;;;;;-0.69;69.39;99546.44;5090165;28;20472;-38
2021/12/25 05:28:43;;;;;;;192.30;72.13;;;;;;;-1.09;70.97;99554.34;5090162;28;20039;-38
2021/12/25 05:31:09;;;;;;;124.72;51.47;;;;;;;-0.74;69.64;99538.19;5089822;28;20039;-38
2021/12/25 05:33:35;;;;;;;118.22;53.13;;;;;;;-0.77;71.81;99551.50;5090063;28;20107;-37
2021/12/25 05:36:01;;;;;;;116.72;51.72;;;;;;;-0.48;70.30;99535.84;5071732;28;20050;-38
2021/12/25 05:38:26;;;;;;;118.47;48.78;;;;;;;0.30;69.06;99545.41;5089783;28;20497;-37
2021/12/25 05:40:52;;;;;;;112.60;47.45;;;;;;;0.61;68.69;99545.16;5093153;28;20503;-37
2021/12/25 05:43:17;;;;;;;111.78;46.42;;;;;;;0.96;67.64;99539.19;5093957;28;20031;-37
2021/12/25 05:45:43;;;;;;;103.95;43.95;;;;;;;0.44;72.90;99539.72;5094174;28;20438;-39
2021/12/25 05:48:09;;;;;;;107.05;45.45;;;;;;;0.05;71.58;99538.97;5093884;28;20142;-38
2021/12/25 05:50:35;;;;;;;101.45;44.80;;;;;;;-0.30;70.43;99533.38;5092538;28;20662;-38
2021/12/25 05:53:00;;;;;;;107.28;44.33;;;;;;;-0.83;75.51;99533.78;5093847;28;20024;-37
2021/12/25 05:55:26;;;;;;;104.70;43.53;;;;;;;-0.82;75.08;99523.19;5093899;28;20031;-38
2021/12/25 05:57:51;;;;;;;107.88;45.65;;;;;;;-0.80;74.85;99536.94;5093890;28;20425;-37
2021/12/25 06:00:17;;;;;;;114.50;46.75;;;;;;;-0.62;74.49;99551.94;5093675;28;20024;-37
2021/12/25 06:02:43;;;;;;;94.20;42.55;;;;;;;-0.63;73.20;99555.50;5093774;28;20099;-38
2021/12/25 06:05:09;;;;;;;89.18;41.75;;;;;;;-0.79;73.96;99562.09;5093462;28;20020;-38
2021/12/25 06:07:35;;;;;;;93.43;42.03;;;;;;;-0.84;74.50;99561.69;5093544;28;20051;-38
2021/12/25 06:10:03;;;;;;;83.88;37.95;;;;;;;-0.89;75.52;99563.06;5093470;28;20314;-37
2021/12/25 06:12:28;;;;;;;89.18;39.97;;;;;;;-0.92;76.10;99565.94;5093704;28;20089;-38
2021/12/25 06:14:54;;;;;;;94.60;40.78;;;;;;;-0.47;75.73;99557.59;5093538;28;20032;-38
2021/12/25 06:17:20;;;;;;;85.00;38.30;;;;;;;-0.57;76.25;99562.84;5093593;28;20081;-36
2021/12/25 06:19:45;;;;;;;90.75;40.55;;;;;;;-0.40;74.99;99556.91;5093632;28;20036;-37
2021/12/25 06:22:11;;;;;;;88.68;39.15;;;;;;;-0.44;74.98;99571.25;5093069;28;20452;-37
2021/12/25 06:24:39;;;;;;;95.93;42.10;;;;;;;-0.42;74.24;99594.59;5093093;28;20027;-37
2021/12/25 06:27:05;;;;;;;92.38;42.67;;;;;;;-0.45;74.96;99587.88;5092796;28;20556;-38
2021/12/25 06:29:30;;;;;;;177.35;72.53;;;;;;;-0.35;74.93;99593.09;5093466;28;20055;-37
2021/12/25 06:31:56;;;;;;;115.65;46.33;;;;;;;-0.31;75.78;99584.03;5091374;28;20024;-37
2021/12/25 06:34:21;;;;;;;90.28;40.72;;;;;;;-0.27;75.70;99585.41;5073115;28;20025;-38
2021/12/25 06:36:47;;;;;;;96.70;42.33;;;;;;;-0.04;74.25;99588.56;5072609;28;20476;-38
2021/12/25 06:39:14;;;;;;;87.82;40.75;;;;;;;0.00;74.33;99583.91;5072478;28;20044;-38
2021/12/25 06:41:41;;;;;;;89.20;42.08;;;;;;;-0.09;74.02;99569.84;5071420;28;20024;-39
2021/12/25 06:44:06;;;;;;;93.13;42.17;;;;;;;-0.06;74.33;99574.81;5072738;28;20032;-38
2021/12/25 06:46:32;;;;;;;100.07;41.90;;;;;;;-0.05;74.28;99580.88;5072641;28;20102;-38
2021/12/25 06:48:57;;;;;;;107.78;45.78;;;;;;;-0.05;74.35;99583.47;5072172;28;20047;-39
2021/12/25 06:51:23;;;;;;;101.47;44.30;;;;;;;0.09;74.16;99576.97;5072504;28;20033;-37
2021/12/25 06:53:48;;;;;;;95.57;43.88;;;;;;;0.07;73.66;99586.78;5072707;28;20024;-39
2021/12/25 06:56:14;;;;;;;85.47;41.03;;;;;;;0.15;74.54;99589.50;5088576;28;20031;-37
2021/12/25 06:58:39;;;;;;;100.70;44.50;;;;;;;0.29;73.70;99604.78;5092941;28;20023;-38
2021/12/25 07:01:05;;;;;;;94.28;41.03;;;;;;;0.08;73.33;99604.94;5092283;28;20024;-39
2021/12/25 07:03:30;;;;;;;87.68;39.17;;;;;;;0.07;73.52;99605.09;5092201;28;20039;-38
2021/12/25 07:05:56;;;;;;;77.20;36.17;;;;;;;0.24;73.57;99593.91;5091365;28;20500;-38
2021/12/25 07:08:21;;;;;;;84.00;38.45;;;;;;;0.08;73.61;99591.88;5092429;28;20028;-38
2021/12/25 07:10:48;;;;;;;81.45;36.72;;;;;;;0.18;74.34;99603.13;5091204;28;20117;-39
2021/12/25 07:13:18;;;;;;;82.18;36.10;;;;;;;0.58;72.55;99599.47;5091523;28;20455;-39
2021/12/25 07:15:43;;;;;;;78.78;35.60;;;;;;;0.56;72.50;99598.78;5091536;28;20039;-39
2021/12/25 07:18:09;;;;;;;72.10;33.50;;;;;;;0.47;72.68;99609.28;5091756;28;20054;-39
2021/12/25 07:20:34;;;;;;;66.32;32.17;;;;;;;1.14;73.95;99630.97;5091530;28;20505;-39
2021/12/25 07:23:00;;;;;;;63.50;30.45;;;;;;;1.65;72.29;99626.13;5091333;28;20035;-39
2021/12/25 07:25:26;;;;;;;122.25;53.05;;;;;;;1.88;71.35;99640.44;5091371;28;20426;-39
2021/12/25 07:27:51;;;;;;;71.65;32.83;;;;;;;2.14;67.77;99647.56;5091491;28;20103;-38
2021/12/25 07:30:18;;;;;;;60.97;31.05;;;;;;;2.22;69.30;99641.56;5091498;28;20070;-42
2021/12/25 07:32:43;;;;;;;58.63;30.45;;;;;;;2.26;68.90;99627.16;5091006;28;20051;-38
2021/12/25 07:35:09;;;;;;;69.47;32.47;;;;;;;2.72;65.44;99636.50;5091202;28;20647;-51
2021/12/25 07:37:34;;;;;;;88.97;42.50;;;;;;;3.26;65.11;99641.53;5091094;28;20024;-51
2021/12/25 07:40:01;;;;;;;90.30;42.80;;;;;;;3.32;63.16;99637.44;5091168;28;20036;-51
2021/12/25 07:42:26;;;;;;;95.70;46.63;;;;;;;3.41;64.30;99631.22;5091109;28;20475;-50
2021/12/25 07:44:55;;;;;;;101.57;49.85;;;;;;;3.82;63.50;99618.13;5090679;28;20042;-51
2021/12/25 07:47:22;;;;;;;113.03;55.25;;;;;;;4.06;62.62;99624.44;5091569;28;20020;-51
2021/12/25 07:49:49;;;;;;;110.30;54.97;;;;;;;4.02;63.71;99631.84;5090127;28;20112;-53
2021/12/25 07:52:15;;;;;;;113.55;57.53;;;;;;;4.03;64.32;99645.81;5091063;28;20117;-49
2021/12/25 07:54:40;;;;;;;110.60;57.45;;;;;;;3.99;63.16;99642.69;5091008;28;20468;-50
2021/12/25 07:57:06;;;;;;;122.53;61.78;;;;;;;4.15;64.19;99641.88;5090595;28;20098;-50
2021/12/25 07:59:31;;;;;;;116.00;57.92;;;;;;;4.54;63.02;99643.03;5090751;28;20031;-51
2021/12/25 08:01:57;;;;;;;114.78;57.38;;;;;;;4.87;60.90;99633.22;5089800;28;20024;-50
2021/12/25 08:04:22;;;;;;;112.32;57.30;;;;;;;5.15;59.34;99631.00;5090464;28;20024;-49
2021/12/25 08:06:48;;;;;;;108.13;54.20;;;;;;;5.33;59.86;99648.38;5088786;28;20056;-49
2021/12/25 08:09:17;;;;;;;115.30;57.10;;;;;;;5.33;59.15;99646.59;5090536;28;20036;-50
2021/12/25 08:11:42;;;;;;;113.53;59.47;;;;;;;5.46;59.19;99657.41;5090579;28;20138;-49
2021/12/25 08:14:08;;;;;;;103.40;53.35;;;;;;;5.74;57.32;99649.00;5091055;28;20063;-52
2021/12/25 08:16:33;;;;;;;101.32;53.30;;;;;;;5.93;55.99;99646.91;5090552;28;20436;-50
2021/12/25 08:18:59;;;;;;;106.18;54.40;;;;;;;6.16;57.33;99637.19;5090623;28;20076;-41
2021/12/25 08:21:24;;;;;;;100.55;52.97;;;;;;;6.17;56.90;99630.91;5090577;28;20352;-39
2021/12/25 08:23:50;;;;;;;95.53;50.42;;;;;;;6.14;56.65;99630.44;5090971;28;20027;-38
2021/12/25 08:26:15;;;;;;;104.25;52.35;;;;;;;6.40;55.42;99641.47;5089410;28;20016;-39
2021/12/25 08:28:41;;;;;;;94.18;50.03;;;;;;;6.76;54.55;99629.38;5090815;28;20129;-39
2021/12/25 08:31:06;;;;;;;100.15;50.15;;;;;;;7.07;54.04;99618.63;5090200;28;20019;-39
2021/12/25 08:33:32;;;;;;;100.72;48.67;;;;;;;7.12;54.74;99620.72;5089047;28;20117;-38
2021/12/25 08:35:57;;;;;;;92.38;48.33;;;;;;;6.92;54.47;99623.09;5090106;28;20486;-38
2021/12/25 08:38:23;;;;;;;93.00;48.70;;;;;;;7.16;52.53;99627.28;5090623;28;20040;-38
2021/12/25 08:40:48;;;;;;;88.88;47.72;;;;;;;7.10;53.69;99617.44;5089842;28;20442;-38
2021/12/25 08:43:16;;;;;;;92.72;47.17;;;;;;;7.12;54.12;99626.00;5090256;28;20055;-39
2021/12/25 08:45:44;;;;;;;88.32;45.63;;;;;;;7.52;53.50;99626.50;5090058;28;20028;-38
2021/12/25 08:48:21;;;;;;;77.95;42.55;;;;;;;8.66;49.84;99617.75;5089969;28;20035;-39
2021/12/25 08:50:49;;;;;;;76.13;41.10;;;;;;;8.22;51.14;99612.53;5089889;28;20027;-39
2021/12/25 08:53:14;;;;;;;67.68;37.75;;;;;;;8.12;51.77;99617.31;5089989;28;20333;-37
2021/12/25 08:55:40;;;;;;;56.90;31.38;;;;;;;8.33;50.84;99608.53;5089547;28;20443;-39
2021/12/25 08:58:05;;;;;;;50.20;29.25;;;;;;;8.55;48.79;99603.22;5088981;28;20046;-39
2021/12/25 09:00:31;;;;;;;51.38;28.42;;;;;;;8.79;48.93;99604.59;5089614;28;20020;-38
2021/12/25 09:02:56;;;;;;;59.33;32.08;;;;;;;8.17;50.60;99600.88;5089694;28;20324;-37
2021/12/25 09:05:22;;;;;;;53.33;31.35;;;;;;;8.45;50.83;99584.97;5090187;28;20040;-39
2021/12/25 09:07:47;;;;;;;56.33;31.02;;;;;;;8.63;51.67;99589.00;5089689;28;20058;-39
2021/12/25 09:10:13;;;;;;;54.03;30.73;;;;;;;8.81;49.48;99586.63;5089661;28;20028;-39
2021/12/25 09:12:41;;;;;;;63.55;31.77;;;;;;;8.80;50.74;99587.66;5089828;28;20028;-39
2021/12/25 09:15:08;;;;;;;55.17;30.27;;;;;;;8.82;49.82;99587.47;5088793;28;20024;-39
2021/12/25 09:17:34;;;;;;;53.45;30.38;;;;;;;8.33;49.53;99586.50;5089909;28;20524;-39
2021/12/25 09:19:59;;;;;;;59.55;32.78;;;;;;;8.06;51.19;99586.28;5089556;28;20020;-39
2021/12/25 09:22:25;;;;;;;59.40;31.10;;;;;;;8.21;50.24;99579.06;5089641;28;20055;-49
2021/12/25 09:24:50;;;;;;;51.58;28.08;;;;;;;8.62;49.73;99577.53;5089472;28;20020;-49
2021/12/25 09:27:16;;;;;;;51.55;28.20;;;;;;;8.87;48.43;99575.25;5089297;28;20435;-49
2021/12/25 09:29:41;;;;;;;51.83;28.60;;;;;;;8.72;49.35;99569.22;5089207;28;20333;-49
2021/12/25 09:32:07;;;;;;;48.35;28.38;;;;;;;8.92;48.46;99556.09;5089294;28;20052;-52
2021/12/25 09:34:32;;;;;;;51.05;28.05;;;;;;;9.85;46.42;99558.19;5089190;28;20020;-49
2021/12/25 09:36:58;;;;;;;53.85;27.77;;;;;;;9.90;45.60;99556.56;5089223;28;20051;-51
2021/12/25 09:39:23;;;;;;;48.25;27.00;;;;;;;9.44;46.99;99556.47;5089381;28;20402;-49
2021/12/25 09:41:49;;;;;;;49.17;27.38;;;;;;;9.43;47.00;99546.88;5089225;28;20027;-49
2021/12/25 09:44:14;;;;;;;50.13;26.75;;;;;;;9.25;48.08;99545.56;5088907;28;20372;-49
2021/12/25 09:46:40;;;;;;;47.33;25.80;;;;;;;8.99;49.09;99541.81;5088928;28;20031;-49
2021/12/25 09:49:05;;;;;;;46.30;26.55;;;;;;;8.90;49.79;99528.91;5088897;28;20031;-49
2021/12/25 09:51:31;;;;;;;47.25;24.85;;;;;;;11.39;53.58;99542.72;5089183;28;20456;-48
2021/12/25 09:54:09;;;;;;;47.13;27.23;;;;;;;11.14;45.75;99536.28;5088912;28;20020;-48
2021/12/25 09:56:39;;;;;;;46.60;27.52;;;;;;;11.01;48.04;99531.00;5089024;28;20506;-39
2021/12/25 09:59:05;;;;;;;50.47;28.67;;;;;;;11.26;45.20;99530.28;5089410;28;20028;-39
2021/12/25 10:01:50;;;;;;;48.05;27.48;;;;;;;10.91;46.49;99523.47;5089659;28;20035;-39
2021/12/25 10:04:49;;;;;;;41.65;25.02;;;;;;;11.15;44.75;99524.59;5090377;28;20416;-38
2021/12/25 10:07:19;;;;;;;39.85;23.33;;;;;;;11.02;45.06;99519.31;5090133;28;20052;-38
2021/12/25 10:09:59;;;;;;;41.25;24.20;;;;;;;10.56;45.69;99512.31;5089952;28;20024;-39
2021/12/25 10:12:41;;;;;;;43.13;23.85;;;;;;;10.09;47.10;99512.38;5090093;28;20052;-39
2021/12/25 10:15:08;;;;;;;46.08;26.17;;;;;;;10.29;47.49;99517.66;5075783;28;20020;-39
2021/12/25 10:17:34;;;;;;;38.60;21.40;;;;;;;12.04;51.33;99507.84;5068207;28;20039;-40
2021/12/25 10:20:11;;;;;;;50.13;28.05;;;;;;;14.30;40.19;99513.91;5102264;28;20108;-38
2021/12/25 10:22:53;;;;;;;51.20;30.85;;;;;;;13.16;40.83;99506.84;5071321;28;20040;-38
2021/12/25 10:25:19;;;;;;;50.67;30.00;;;;;;;11.40;44.85;99496.38;5089863;28;20028;-39
2021/12/25 10:27:54;;;;;;;53.85;30.50;;;;;;;10.82;47.12;99492.78;5075613;28;20039;-39
2021/12/25 10:30:20;;;;;;;56.17;33.17;;;;;;;10.65;47.17;99502.28;5092370;28;20028;-38
2021/12/25 10:32:45;;;;;;;48.38;28.77;;;;;;;10.96;46.97;99507.66;5092505;28;20039;-39
2021/12/25 10:35:13;;;;;;;49.67;28.42;;;;;;;10.25;47.89;99510.31;5091784;28;20040;-38
2021/12/25 10:37:41;;;;;;;49.17;28.60;;;;;;;10.09;48.82;99506.22;5090097;28;20032;-39
2021/12/25 10:40:32;;;;;;;47.55;27.50;;;;;;;9.91;49.67;99491.72;5090381;28;20488;-38
2021/12/25 10:42:59;;;;;;;50.73;28.23;;;;;;;9.83;49.66;99481.31;5090689;28;20032;-39
2021/12/25 10:45:28;;;;;;;48.45;27.80;;;;;;;9.97;48.53;99461.66;5090936;28;20383;-39
2021/12/25 10:48:06;;;;;;;43.57;26.23;;;;;;;9.84;49.50;99477.63;5091376;28;20034;-39
2021/12/25 10:50:42;;;;;;;44.30;24.40;;;;;;;11.07;46.87;99486.75;5088428;28;20030;-39
2021/12/25 10:53:27;;;;;;;42.90;25.35;;;;;;;11.10;46.11;99470.31;5089837;28;20050;-38
2021/12/25 10:55:53;;;;;;;43.35;24.10;;;;;;;10.30;48.21;99475.91;5090787;28;20032;-39
2021/12/25 10:58:24;;;;;;;40.30;24.13;;;;;;;10.41;48.30;99475.31;5090112;28;20028;-39
2021/12/25 11:00:56;;;;;;;38.50;21.55;;;;;;;10.28;48.41;99467.34;5091415;28;20012;-39
2021/12/25 11:03:30;;;;;;;35.25;20.60;;;;;;;10.73;47.06;99465.59;5091590;28;20028;-39
2021/12/25 11:06:02;;;;;;;30.92;20.00;;;;;;;11.41;45.57;99455.41;5091715;28;20108;-39
2021/12/25 11:08:29;;;;;;;32.80;19.38;;;;;;;11.87;44.21;99454.22;5090655;28;20028;-39
2021/12/25 11:11:00;;;;;;;34.40;20.00;;;;;;;11.33;45.31;99454.63;5091722;28;20032;-39
2021/12/25 11:13:31;;;;;;;41.40;20.27;;;;;;;11.07;46.60;99449.47;5092101;28;20028;-38
2021/12/25 11:16:05;;;;;;;32.30;20.92;;;;;;;11.15;46.13;99442.03;5091734;28;20036;-40
2021/12/25 11:18:53;;;;;;;34.15;19.50;;;;;;;11.38;46.75;99439.84;5091774;28;20058;-39
2021/12/25 11:21:18;;;;;;;33.42;19.13;;;;;;;12.10;44.31;99440.28;5091668;28;20431;-38
2021/12/25 11:23:45;;;;;;;31.48;18.10;;;;;;;11.76;45.02;99438.94;5091340;28;20506;-39
2021/12/25 11:26:12;;;;;;;33.20;19.17;;;;;;;11.55;45.44;99440.94;5090251;28;20055;-39
2021/12/25 11:28:37;;;;;;;33.90;19.17;;;;;;;11.91;44.87;99429.56;5091691;28;20101;-40
2021/12/25 11:31:03;;;;;;;33.92;20.95;;;;;;;11.65;45.30;99430.63;5090348;28;20480;-39
2021/12/25 11:33:28;;;;;;;30.75;18.85;;;;;;;11.84;44.75;99427.97;5091592;28;20024;-39
2021/12/25 11:35:54;;;;;;;28.67;18.55;;;;;;;11.65;45.07;99427.97;5091719;28;20403;-39
2021/12/25 11:38:19;;;;;;;32.47;18.30;;;;;;;11.72;45.14;99428.69;5090349;28;20053;-39
2021/12/25 11:40:52;;;;;;;27.55;17.63;;;;;;;11.67;45.12;99422.38;5091639;28;20020;-39
2021/12/25 11:43:35;;;;;;;35.08;18.85;;;;;;;11.20;46.74;99419.28;5090065;28;20031;-39
2021/12/25 11:46:06;;;;;;;33.30;19.27;;;;;;;10.99;46.79;99415.91;5091256;28;20027;-38
2021/12/25 11:48:31;;;;;;;29.33;18.42;;;;;;;11.38;45.95;99418.53;5090941;28;20031;-38
2021/12/25 11:50:57;;;;;;;31.10;19.83;;;;;;;11.55;45.98;99411.63;5089630;28;20032;-37
2021/12/25 11:58:51;;;;;;;27.70;16.73;;;;;;;11.65;45.12;99403.97;5091011;28;20047;-38
2021/12/25 12:01:33;;;;;;;29.85;16.92;;;;;;;11.72;45.52;99395.91;5090796;28;20106;-39
2021/12/25 12:04:10;;;;;;;28.38;16.98;;;;;;;11.66;46.08;99405.59;5090588;28;20032;-39
2021/12/25 12:06:45;;;;;;;30.92;17.13;;;;;;;11.61;45.58;99408.06;5090763;28;20051;-39
2021/12/25 12:09:33;;;;;;;25.27;14.45;;;;;;;11.86;45.34;99399.25;5090851;28;20464;-39
2021/12/25 12:12:23;;;;;;;25.70;14.38;;;;;;;11.37;47.45;99391.06;5089072;28;20039;-39
2021/12/25 12:15:11;;;;;;;23.77;13.55;;;;;;;12.05;45.32;99395.63;5090545;28;20072;-39
2021/12/25 12:17:38;;;;;;;21.92;13.55;;;;;;;12.23;44.40;99384.13;5090999;28;20032;-39
2021/12/25 12:20:05;;;;;;;21.67;13.45;;;;;;;12.30;45.24;99386.72;5089134;28;20097;-39
2021/12/25 12:27:35;;;;;;;22.95;13.73;;;;;;;12.32;45.73;99377.44;5090853;28;20152;-38
2021/12/25 12:30:01;;;;;;;22.08;13.68;;;;;;;12.62;44.84;99365.16;5090768;28;20024;-39
2021/12/25 12:32:34;;;;;;;18.67;11.55;;;;;;;12.17;45.45;99376.22;5090620;28;20476;-40
2021/12/25 12:35:00;;;;;;;18.88;11.85;;;;;;;12.27;45.61;99371.97;5090377;28;20108;-38
2021/12/25 12:37:26;;;;;;;17.05;11.52;;;;;;;12.29;45.42;99374.41;5089205;28;20027;-38
2021/12/25 12:40:05;;;;;;;18.85;11.02;;;;;;;12.54;44.48;99378.84;5090357;28;20087;-38
2021/12/25 12:42:49;;;;;;;15.38;10.48;;;;;;;12.38;44.99;99375.75;5090574;28;20051;-38
2021/12/25 12:45:20;;;;;;;18.80;10.38;;;;;;;12.36;45.60;99367.16;5090245;28;20106;-38